Site contains unofficial IBTrACS data. Visit the IBTrACS Website to access archived data.

1957 Tropical Low NOT_NAMED (1957041S12122)


IBTrACS version v04r00. Visit IBTrACS website for data access.
Please direct all questions to the IBTrACS Q and A forum

Storm track - Intensity - Wind Radii - Intensity Data - Source Data - All data

Summary Information

Storm ID 1957041S12122
Start Feb 9 23Z
Landfall Feb 14 00Z, Feb 15 18Z
Max Intensity 960 mb (Feb 15 01Z)
End Feb 17 23Z
ATCF IDs ,SH211957
Track status Best track data.

Storm track plot

Map of storm track

Intensity plots

Map of storm track

Radial wind information

No radial wind information for this storm


Position and Intensity Table

BASIN ISO_TIME_________ NATURE LAT LON WMO PRES BOM PRES
degrees north degrees east mb mb
SI 1957-02-09 23:00:00 NR -12.00 121.60
SI 1957-02-10 00:00:00 TS -12.11 121.61
SI 03:00:00 TS -12.46 121.70
SI 06:00:00 TS -12.79 121.79
SI 09:00:00 TS -13.11 121.85
SI 11:00:00 TS -13.31 121.89
SI 12:00:00 TS -13.40 121.91
SI 15:00:00 TS -13.67 122.00
SI 18:00:00 TS -13.90 122.11
SI 21:00:00 TS -14.08 122.21
SI 23:00:00 TS -14.17 122.28
SI 1957-02-11 00:00:00 TS -14.22 122.31
SI 01:00:00 TS -14.26 122.34 995 995
SI 03:00:00 TS -14.33 122.41
SI 06:00:00 TS -14.43 122.53
SI 09:00:00 TS -14.52 122.65
SI 11:00:00 TS -14.58 122.72
SI 12:00:00 TS -14.62 122.76
SI 15:00:00 TS -14.74 122.87
SI 18:00:00 TS -14.87 122.96
SI 21:00:00 TS -14.96 123.03
SI 23:00:00 TS -15.02 123.06
SI 1957-02-12 00:00:00 TS -15.05 123.09
SI 01:00:00 TS -15.07 123.11 990 990
SI 03:00:00 TS -15.13 123.14
SI 06:00:00 TS -15.22 123.16
SI 09:00:00 TS -15.31 123.15
SI 11:00:00 TS -15.36 123.14
SI 12:00:00 TS -15.40 123.13
SI 15:00:00 TS -15.52 123.10
SI 18:00:00 TS -15.65 123.06
SI 19:00:00 TS -15.69 123.04 986 986
SI 21:00:00 TS -15.78 123.00 980
SI 23:00:00 TS -15.87 122.95 975
SI 1957-02-13 00:00:00 TS -15.91 122.92 972
SI 01:00:00 TS -15.96 122.89 970 970
SI 03:00:00 TS -16.03 122.82 970
SI 06:00:00 TS -16.14 122.72 970
SI 09:00:00 TS -16.24 122.65 970
SI 11:00:00 TS -16.31 122.62 970
SI 12:00:00 TS -16.35 122.61 970 970
SI 15:00:00 TS -16.44 122.61 967
SI 17:00:00 TS -16.52 122.61 965 965
SI 18:00:00 TS -16.55 122.62 965
SI 21:00:00 TS -16.70 122.64 965 965
SI 23:00:00 TS -16.84 122.62 965
SI 1957-02-14 00:00:00 TS -16.93 122.58 965
SI 01:00:00 TS -17.02 122.52 965 965
SI 03:00:00 TS -17.23 122.36 963
SI 05:30:00 TS -17.54 122.10 962
SI 06:00:00 TS -17.60 122.05 962
SI 06:30:00 TS -17.66 121.99 962 962
SI 09:00:00 TS -17.93 121.76
SI 11:00:00 TS -18.12 121.59
SI 12:00:00 TS -18.21 121.52
SI 15:00:00 TS -18.41 121.32
SI 18:00:00 TS -18.59 121.13
SI 21:00:00 TS -18.76 120.95
SI 23:00:00 TS -18.88 120.82
SI 1957-02-15 00:00:00 TS -18.94 120.76
SI 01:00:00 TS -19.01 120.69 960 960
SI 03:00:00 TS -19.14 120.55
SI 06:00:00 TS -19.36 120.33
SI 09:00:00 TS -19.57 120.11
SI 11:00:00 TS -19.72 119.97
SI 12:00:00 TS -19.80 119.89
SI 15:00:00 TS -20.05 119.68 960 960
SI 18:00:00 TS -20.31 119.45 966
SI 21:00:00 TS -20.58 119.21 972
SI 23:00:00 TS -20.79 119.03 976
SI 1957-02-16 00:00:00 TS -20.90 118.93 978
SI 01:00:00 TS -21.03 118.82 980 980
SI 03:00:00 TS -21.29 118.56
SI 06:00:00 TS -21.73 118.13
SI 09:00:00 TS -22.20 117.69
SI 11:00:00 TS -22.53 117.39
SI 12:00:00 TS -22.69 117.24
SI 15:00:00 TS -23.17 116.74
SI 18:00:00 TS -23.70 116.34
SI 21:00:00 TS -24.33 116.07
SI 23:00:00 TS -24.83 116.03
SI 1957-02-17 00:00:00 TS -25.13 116.06
SI 01:00:00 TS -25.46 116.15 995 995
SI 03:00:00 TS -26.15 116.50 995
SI 06:00:00 TS -27.25 117.21 995
SI 09:00:00 TS -28.33 118.00 995
SI 10:00:00 TS -28.68 118.27 995 995
SI 11:00:00 TS -29.03 118.55 995
SI 12:00:00 TS -29.38 118.82 995
SI 15:00:00 TS -30.39 119.63 995
SI 16:00:00 TS -30.68 119.92 995 995
SI 18:00:00 TS -31.36 120.37 995
SI 21:00:00 NR -32.27 120.98 995
SI 22:00:00 NR -32.66 121.14 995 995
SI 23:00:00 NR -33.30 121.30

Source Information

Agency Information
USA bsh211957.txt
TOKYO
CMA
HKO
NEWDELHI
REUNION
BOM IDCKMSTM0S.csv:Line=2392:unnamed
NADI
WELLINGTON
DS824 s_hem.dat:706:21S
TD9636 cons_worldwide_trop_cyclone_18710101-19891231-006:Line=4903
TD9635
NEUMANN
MLC

All available IBTrACS Data

SEASON BASIN SUBBASIN ISO_TIME_________ NATURE LAT LON WMO PRES WMO AGENCY DIST2LAND LANDFALL IFLAG USA AGENCY USA ATCF_ID USA LAT USA LON USA SSHS BOM LAT BOM LON BOM PRES BOM PRES_METHOD DS824 LAT DS824 LON DS824 STAGE TD9636 LAT TD9636 LON TD9636 STAGE STORM SPEED STORM DIR
Year degrees north degrees east mb km km degrees north degrees east 1 degrees north degrees east mb degrees north degrees east degrees north degrees east kts degrees
1957 SI WA 1957-02-09 23:00:00 NR -12.00 121.60 224 224 __________O___ -1 -12.00 121.60 1 7 0
1957 SI WA 1957-02-10 00:00:00 TS -12.11 121.61 234 234 O________OP___ jtwc_sh SH211957 -12.10 121.60 -1 -12.10 121.60 TC -12.11 121.62 1 7 167
1957 SI WA 03:00:00 TS -12.46 121.70 278 278 P________PP___ SH211957 -12.46 121.71 -1 -12.46 121.71 TC -12.46 121.69 1 7 166
1957 SI WA 06:00:00 TS -12.79 121.79 313 313 O________OP___ jtwc_sh SH211957 -12.80 121.80 -1 -12.80 121.80 TC -12.79 121.76 1 7 168
1957 SI WA 09:00:00 TS -13.11 121.85 344 344 P________PP___ SH211957 -13.11 121.85 -1 -13.11 121.85 TC -13.10 121.84 1 6 169
1957 SI WA 11:00:00 TS -13.31 121.89 368 363 P________PO___ SH211957 -13.31 121.88 -1 -13.31 121.88 TC -13.30 121.90 7 6 168
1957 SI WA 12:00:00 TS -13.40 121.91 363 327 O________OP___ jtwc_sh SH211957 -13.40 121.90 -1 -13.40 121.90 TC -13.39 121.93 7 6 163
1957 SI WA 15:00:00 TS -13.67 122.00 327 303 P________PP___ SH211957 -13.67 121.99 -1 -13.67 121.99 TC -13.66 122.03 7 5 159
1957 SI WA 18:00:00 TS -13.90 122.11 303 278 O________OP___ jtwc_sh SH211957 -13.90 122.10 -1 -13.90 122.10 TC -13.89 122.13 7 5 154
1957 SI WA 21:00:00 TS -14.08 122.21 278 265 P________PP___ SH211957 -14.07 122.20 -1 -14.07 122.20 TC -14.09 122.23 7 4 149
1957 SI WA 23:00:00 TS -14.17 122.28 265 265 P________PO___ SH211957 -14.16 122.27 -1 -14.16 122.27 TC -14.20 122.30 1 3 145
1957 SI WA 1957-02-11 00:00:00 TS -14.22 122.31 265 254 O________OP___ jtwc_sh SH211957 -14.20 122.30 -1 -14.20 122.30 TC -14.25 122.33 1 3 145
1957 SI WA 01:00:00 TS -14.26 122.34 995 bom 254 252 P_____O__PP___ SH211957 -14.24 122.33 -1 -14.30 122.30 995 -14.24 122.33 TC -14.29 122.37 1 3 139
1957 SI WA 03:00:00 TS -14.33 122.41 252 238 P_____P__PP___ SH211957 -14.31 122.40 -1 -14.36 122.42 -14.31 122.40 TC -14.37 122.44 1 3 132
1957 SI WA 06:00:00 TS -14.43 122.53 238 223 O_____P__OP___ jtwc_sh SH211957 -14.40 122.50 -1 -14.45 122.59 -14.40 122.50 TC -14.46 122.54 1 3 129
1957 SI WA 09:00:00 TS -14.52 122.65 223 208 P_____P__PP___ SH211957 -14.49 122.60 -1 -14.54 122.75 -14.49 122.60 TC -14.54 122.64 1 3 130
1957 SI WA 11:00:00 TS -14.58 122.72 208 203 P_____P__PO___ SH211957 -14.56 122.67 -1 -14.60 122.85 -14.56 122.67 TC -14.60 122.70 1 3 134
1957 SI WA 12:00:00 TS -14.62 122.76 203 188 O_____P__OP___ jtwc_sh SH211957 -14.60 122.70 -1 -14.63 122.90 -14.60 122.70 TC -14.64 122.73 1 3 139
1957 SI WA 15:00:00 TS -14.74 122.87 188 163 P_____P__PP___ SH211957 -14.75 122.81 -1 -14.71 123.03 -14.75 122.81 TC -14.76 122.82 1 3 141
1957 SI WA 18:00:00 TS -14.87 122.96 163 153 O_____P__OP___ jtwc_sh SH211957 -14.90 122.90 -1 -14.78 123.15 -14.90 122.90 TC -14.89 122.90 1 3 145
1957 SI WA 21:00:00 TS -14.96 123.03 153 148 P_____P__PP___ SH211957 -15.00 122.96 -1 -14.84 123.23 -15.00 122.96 TC -15.01 122.96 1 2 149
1957 SI WA 23:00:00 TS -15.02 123.06 148 148 P_____P__PO___ SH211957 -15.06 122.99 -1 -14.87 123.27 -15.06 122.99 TC -15.10 123.00 1 2 144
1957 SI WA 1957-02-12 00:00:00 TS -15.05 123.09 148 138 O_____P__OP___ jtwc_sh SH211957 -15.10 123.00 -1 -14.89 123.29 -15.10 123.00 TC -15.14 123.02 1 2 129
1957 SI WA 01:00:00 TS -15.07 123.11 990 bom 138 138 P_____O__PP___ SH211957 -15.15 123.02 -1 -14.90 123.30 990 -15.15 123.02 TC -15.18 123.03 1 2 146
1957 SI WA 03:00:00 TS -15.13 123.14 138 124 P_____P__PP___ SH211957 -15.25 123.06 -1 -14.92 123.31 -15.25 123.06 TC -15.27 123.06 1 2 168
1957 SI WA 06:00:00 TS -15.22 123.16 124 114 O_____P__OP___ jtwc_sh SH211957 -15.40 123.10 -1 -14.95 123.30 -15.40 123.10 TC -15.39 123.09 1 2 174
1957 SI WA 09:00:00 TS -15.31 123.15 114 110 P_____P__PP___ SH211957 -15.50 123.11 -1 -14.99 123.26 -15.50 123.11 TC -15.52 123.10 1 2 0
1957 SI WA 11:00:00 TS -15.36 123.14 110 110 P_____P__PO___ SH211957 -15.56 123.10 -1 -15.02 123.22 -15.56 123.10 TC -15.60 123.10 2 2 0
1957 SI WA 12:00:00 TS -15.40 123.13 110 101 O_____P__OP___ jtwc_sh SH211957 -15.60 123.10 -1 -15.04 123.20 -15.60 123.10 TC -15.64 123.10 2 2 196
1957 SI WA 15:00:00 TS -15.52 123.10 101 92 P_____P__PP___ SH211957 -15.75 123.11 -1 -15.13 123.12 -15.75 123.11 TC -15.77 123.09 2 3 195
1957 SI WA 18:00:00 TS -15.65 123.06 92 85 O_____P__OP___ jtwc_sh SH211957 -15.90 123.10 -1 -15.25 123.03 -15.90 123.10 TC -15.90 123.07 2 3 198
1957 SI WA 19:00:00 TS -15.69 123.04 986 bom 89 78 P_____O__PP___ SH211957 -15.94 123.09 -1 -15.30 123.00 986 -15.94 123.09 TC -15.94 123.06 2 3 201
1957 SI WA 21:00:00 TS -15.78 123.00 78 67 P_____P__PP___ SH211957 -16.01 123.06 -1 -15.43 122.94 980 -16.01 123.06 TC -16.02 123.03 2 3 206
1957 SI WA 23:00:00 TS -15.87 122.95 67 67 P_____P__PO___ SH211957 -16.07 123.02 -1 -15.57 122.87 975 -16.07 123.02 TC -16.10 123.00 4 3 207
1957 SI WA 1957-02-13 00:00:00 TS -15.91 122.92 67 67 O_____P__OP___ jtwc_sh SH211957 -16.10 123.00 -1 -15.64 122.83 972 -16.10 123.00 TC -16.14 122.98 4 3 216
1957 SI WA 01:00:00 TS -15.96 122.89 970 bom 55 55 P_____O__PP___ SH211957 -16.13 122.97 -1 -15.70 122.80 970 -16.13 122.97 TC -16.17 122.96 4 3 219
1957 SI WA 03:00:00 TS -16.03 122.82 56 46 P_____P__PP___ SH211957 -16.20 122.90 -1 -15.80 122.72 970 -16.20 122.90 TC -16.24 122.92 4 3 222
1957 SI WA 06:00:00 TS -16.14 122.72 49 39 O_____P__OP___ jtwc_sh SH211957 -16.30 122.80 -1 -15.91 122.59 970 -16.30 122.80 TC -16.33 122.85 4 3 218
1957 SI WA 09:00:00 TS -16.24 122.65 39 39 P_____P__PP___ SH211957 -16.40 122.75 -1 -16.00 122.50 970 -16.40 122.75 TC -16.43 122.76 4 2 208
1957 SI WA 11:00:00 TS -16.31 122.62 39 39 P_____P__PO___ SH211957 -16.47 122.72 -1 -16.07 122.49 970 -16.47 122.72 TC -16.50 122.70 2 2 204
1957 SI WA 12:00:00 TS -16.35 122.61 970 bom 39 30 O_____O__OP___ jtwc_sh SH211957 -16.50 122.70 -1 -16.10 122.50 970 -16.50 122.70 TC -16.53 122.67 2 2 0
1957 SI WA 15:00:00 TS -16.44 122.61 30 24 P_____P__PP___ SH211957 -16.59 122.61 -1 -16.23 122.59 967 -16.59 122.61 TC -16.64 122.59 2 2 0
1957 SI WA 17:00:00 TS -16.52 122.61 965 bom 24 24 P_____O__PP___ SH211957 -16.66 122.54 -1 -16.30 122.70 965 -16.66 122.54 TC -16.71 122.53 2 2 169
1957 SI WA 18:00:00 TS -16.55 122.62 15 10 O_____P__OP___ jtwc_sh SH211957 -16.70 122.50 -1 -16.32 122.78 965 -16.70 122.50 TC -16.75 122.50 2 3 170
1957 SI WA 21:00:00 TS -16.70 122.64 965 bom 10 10 P_____O__PP___ SH211957 -16.88 122.41 -1 -16.40 123.00 965 -16.88 122.41 TC -16.89 122.39 2 3 0
1957 SI WA 23:00:00 TS -16.84 122.62 11 0 P_____P__PO___ SH211957 -17.03 122.34 -1 -16.56 123.06 965 -17.03 122.34 TC -17.00 122.30 2 5 194
1957 SI WA 1957-02-14 00:00:00 TS -16.93 122.58 0 0 O_____P__OP___ jtwc_sh SH211957 -17.10 122.30 -1 -16.67 123.05 965 -17.10 122.30 TC -17.06 122.25 2 6 207
1957 SI WA 01:00:00 TS -17.02 122.52 965 bom 0 0 P_____O__PP___ SH211957 -17.16 122.24 -1 -16.80 123.00 965 -17.16 122.24 TC -17.13 122.21 2 7 214
1957 SI WA 03:00:00 TS -17.23 122.36 0 0 P_____P__PP___ SH211957 -17.29 122.11 -1 -17.12 122.81 963 -17.29 122.11 TC -17.27 122.10 2 9 218
1957 SI WA 05:30:00 TS -17.54 122.10 bom 10 0 P_____I__PP___ SH211957 -17.46 121.94 -1 -17.60 122.40 962 -17.46 121.94 TC -17.46 121.96 2 10 220
1957 SI WA 06:00:00 TS -17.60 122.05 10 10 O_____P__OP___ jtwc_sh SH211957 -17.50 121.90 -1 -17.70 122.30 962 -17.50 121.90 TC -17.50 121.93 2 10 222
1957 SI WA 06:30:00 TS -17.66 121.99 962 bom 15 15 P_____O__PP___ SH211957 -17.54 121.87 -1 -17.80 122.20 962 -17.54 121.87 TC -17.54 121.90 2 9 219
1957 SI WA 09:00:00 TS -17.93 121.76 42 42 P_____P__PP___ SH211957 -17.75 121.70 -1 -18.19 121.80 -17.75 121.70 TC -17.74 121.74 2 8 219
1957 SI WA 11:00:00 TS -18.12 121.59 46 38 P_____P__PO___ SH211957 -17.92 121.57 -1 -18.40 121.57 -17.92 121.57 TC -17.90 121.60 1 7 220
1957 SI WA 12:00:00 TS -18.21 121.52 46 38 O_____P__OP___ jtwc_sh SH211957 -18.00 121.50 -1 -18.48 121.48 -18.00 121.50 TC -17.97 121.53 1 6 222
1957 SI WA 15:00:00 TS -18.41 121.32 47 43 P_____P__PP___ SH211957 -18.20 121.31 -1 -18.61 121.31 -18.20 121.31 TC -18.19 121.32 1 5 224
1957 SI WA 18:00:00 TS -18.59 121.13 63 61 O_____P__OP___ jtwc_sh SH211957 -18.40 121.10 -1 -18.65 121.22 -18.40 121.10 TC -18.42 121.10 1 5 225
1957 SI WA 21:00:00 TS -18.76 120.95 69 61 P_____P__PP___ SH211957 -18.64 120.86 -1 -18.65 121.18 -18.64 120.86 TC -18.64 120.86 1 5 225
1957 SI WA 23:00:00 TS -18.88 120.82 69 69 P_____P__PO___ SH211957 -18.81 120.69 -1 -18.66 121.15 -18.81 120.69 TC -18.80 120.70 2 5 225
1957 SI WA 1957-02-15 00:00:00 TS -18.94 120.76 69 68 O_____P__OP___ jtwc_sh SH211957 -18.90 120.60 -1 -18.68 121.13 -18.90 120.60 TC -18.88 120.62 2 5 224
1957 SI WA 01:00:00 TS -19.01 120.69 960 bom 68 64 P_____O__PP___ SH211957 -18.98 120.52 -1 -18.70 121.10 960 4 -18.98 120.52 TC -18.96 120.54 2 6 225
1957 SI WA 03:00:00 TS -19.14 120.55 64 54 P_____P__PP___ SH211957 -19.15 120.35 -1 -18.83 120.96 -19.15 120.35 TC -19.11 120.38 2 6 224
1957 SI WA 06:00:00 TS -19.36 120.33 49 35 O_____P__OP___ jtwc_sh SH211957 -19.40 120.10 -1 -19.05 120.74 -19.40 120.10 TC -19.36 120.13 2 6 224
1957 SI WA 09:00:00 TS -19.57 120.11 35 30 P_____P__PP___ SH211957 -19.64 119.85 -1 -19.29 120.52 -19.64 119.85 TC -19.62 119.87 2 6 223
1957 SI WA 11:00:00 TS -19.72 119.97 30 22 P_____P__PO___ SH211957 -19.81 119.68 -1 -19.46 120.38 -19.81 119.68 TC -19.80 119.70 2 6 222
1957 SI WA 12:00:00 TS -19.80 119.89 22 10 O_____P__OP___ jtwc_sh SH211957 -19.90 119.60 -1 -19.54 120.31 -19.90 119.60 TC -19.89 119.62 2 6 220
1957 SI WA 15:00:00 TS -20.05 119.68 960 bom 10 0 P_____O__PP___ SH211957 -20.19 119.36 -1 -19.80 120.10 960 -20.19 119.36 TC -20.15 119.37 2 7 219
1957 SI WA 18:00:00 TS -20.31 119.45 0 0 O_____P__OP___ jtwc_sh SH211957 -20.50 119.10 -1 -20.03 119.93 966 -20.50 119.10 TC -20.44 119.10 2 7 219
1957 SI WA 21:00:00 TS -20.58 119.21 0 0 P_____P__PP___ SH211957 -20.78 118.82 -1 -20.29 119.77 972 -20.78 118.82 TC -20.76 118.81 2 7 220
1957 SI WA 23:00:00 TS -20.79 119.03 0 0 P_____P__PO___ SH211957 -20.98 118.61 -1 -20.48 119.64 976 -20.98 118.61 TC -21.00 118.60 1 8 219
1957 SI WA 1957-02-16 00:00:00 TS -20.90 118.93 0 0 O_____P__OP___ jtwc_sh SH211957 -21.10 118.50 -1 -20.59 119.57 978 -21.10 118.50 TC -21.13 118.48 1 9 219
1957 SI WA 01:00:00 TS -21.03 118.82 980 bom 0 0 P_____O__PP___ SH211957 -21.23 118.38 -1 -20.70 119.50 980 -21.23 118.38 TC -21.26 118.35 1 10 221
1957 SI WA 03:00:00 TS -21.29 118.56 0 0 P_____P__PP___ SH211957 -21.52 118.11 -1 -20.91 119.19 -21.52 118.11 TC -21.53 118.08 1 11 223
1957 SI WA 06:00:00 TS -21.73 118.13 0 0 O_____P__OP___ jtwc_sh SH211957 -22.00 117.70 -1 -21.26 118.62 -22.00 117.70 TC -21.98 117.66 1 12 222
1957 SI WA 09:00:00 TS -22.20 117.69 0 0 P_____P__PP___ SH211957 -22.50 117.31 -1 -21.66 117.97 -22.50 117.31 TC -22.46 117.25 1 13 220
1957 SI WA 11:00:00 TS -22.53 117.39 0 0 P_____P__PO___ SH211957 -22.84 117.04 -1 -21.95 117.53 -22.84 117.04 TC -22.80 117.00 1 13 220
1957 SI WA 12:00:00 TS -22.69 117.24 0 0 O_____P__OP___ jtwc_sh SH211957 -23.00 116.90 -1 -22.11 117.32 -23.00 116.90 TC -22.94 116.85 1 13 223
1957 SI WA 15:00:00 TS -23.17 116.74 0 0 P_____P__PP___ SH211957 -23.42 116.39 -1 -22.63 116.74 -23.42 116.39 TC -23.39 116.41 1 13 219
1957 SI WA 18:00:00 TS -23.70 116.34 0 0 O_____P__OP___ jtwc_sh SH211957 -23.90 116.00 -1 -23.23 116.30 -23.90 116.00 TC -23.89 116.05 1 13 208
1957 SI WA 21:00:00 TS -24.33 116.07 0 0 P_____P__PP___ SH211957 -24.50 115.85 -1 -23.92 116.09 -24.50 115.85 TC -24.50 115.87 1 14 194
1957 SI WA 23:00:00 TS -24.83 116.03 0 0 P_____P__PO___ SH211957 -25.01 115.91 -1 -24.43 116.12 -25.01 115.91 TC -25.00 115.90 1 16 182
1957 SI WA 1957-02-17 00:00:00 TS -25.13 116.06 0 0 O_____P__OP___ jtwc_sh SH211957 -25.30 116.00 -1 -24.71 116.19 -25.30 116.00 TC -25.29 115.98 1 19 170
1957 SI WA 01:00:00 TS -25.46 116.15 995 bom 0 0 P_____O__PP___ SH211957 -25.62 116.11 -1 -25.00 116.30 995 -25.62 116.11 TC -25.61 116.10 1 22 159
1957 SI WA 03:00:00 TS -26.15 116.50 0 0 P_____P__PP___ SH211957 -26.35 116.44 -1 -25.62 116.72 995 -26.35 116.44 TC -26.29 116.42 1 24 152
1957 SI WA 06:00:00 TS -27.25 117.21 0 0 O_____P__OP___ jtwc_sh SH211957 -27.50 117.10 -1 -26.62 117.55 995 -27.50 117.10 TC -27.40 117.08 1 26 149
1957 SI WA 09:00:00 TS -28.33 118.00 0 0 P_____P__PP___ SH211957 -28.56 117.82 -1 -27.66 118.49 995 -28.56 117.82 TC -28.55 117.86 1 26 147
1957 SI WA 10:00:00 TS -28.68 118.27 995 bom 0 0 P_____O__PP___ SH211957 -28.91 118.08 -1 -28.00 118.80 995 -28.91 118.08 TC -28.93 118.13 1 26 146
1957 SI WA 11:00:00 TS -29.03 118.55 0 0 P_____P__PO___ SH211957 -29.25 118.34 -1 -28.33 119.11 995 -29.25 118.34 TC -29.30 118.40 1 25 146
1957 SI WA 12:00:00 TS -29.38 118.82 0 0 O_____P__OP___ jtwc_sh SH211957 -29.60 118.60 -1 -28.67 119.42 995 -29.60 118.60 TC -29.67 118.66 1 25 145
1957 SI WA 15:00:00 TS -30.39 119.63 0 0 P_____P__PP___ SH211957 -30.65 119.36 -1 -29.67 120.27 995 -30.65 119.36 TC -30.71 119.41 1 24 144
1957 SI WA 16:00:00 TS -30.68 119.92 995 bom 0 0 P_____O__PP___ SH211957 -31.00 119.60 -1 -30.00 120.50 995 -31.00 119.60 TC -31.05 119.66 1 23 147
1957 SI WA 18:00:00 TS -31.36 120.37 0 0 O_____P__OP___ jtwc_sh SH211957 -31.70 120.10 -1 -30.67 120.86 995 -31.70 120.10 TC -31.71 120.13 1 22 150
1957 SI WA 21:00:00 NR -32.27 120.98 0 0 ______P___P___ SH211957 -1 -31.67 121.21 995 TC -32.67 120.83 1 22 153
1957 SI WA 22:00:00 NR -32.66 121.14 995 bom 0 0 ______O___P___ SH211957 -1 -32.00 121.30 995 TC -32.99 121.07 1 32 165
1957 SI WA 23:00:00 NR -33.30 121.30 0 __________O___ SH211957 -1 TC -33.30 121.30 1 40 169